Time;durP1;ratioP1;P1;durP2;ratioP2;P2;SDS_P1;SDS_P2;PMS_P1;PMS_P2;Temp;Humidity;BMP_temperature;BMP_pressure;BME280_temperature;BME280_humidity;BME280_pressure;Samples;Min_cycle;Max_cycle;Signal;HPM_P1;HPM_P2
2022/03/27 00:01:03;;;;;;;10.50;8.80;;;6.70;99.90;;;;;;5175053;28;20219;-50
2022/03/27 00:03:34;;;;;;;10.00;8.03;;;6.70;99.90;;;;;;5170300;28;20191;-49
2022/03/27 00:06:04;;;;;;;14.60;9.00;;;6.70;99.90;;;;;;5177697;28;20457;-48
2022/03/27 00:08:35;;;;;;;15.13;9.77;;;6.60;99.90;;;;;;5179076;28;20234;-49
2022/03/27 00:11:24;;;;;;;12.73;9.20;;;6.60;99.90;;;;;;5158864;28;20199;-49
2022/03/27 00:14:15;;;;;;;10.47;8.97;;;6.60;99.90;;;;;;5170385;28;20494;-49
2022/03/27 00:16:45;;;;;;;11.43;9.20;;;6.60;99.90;;;;;;5171996;28;20884;-50
2022/03/27 00:19:16;;;;;;;9.40;8.40;;;6.60;99.90;;;;;;5179413;28;20476;-49
2022/03/27 00:21:46;;;;;;;11.17;7.90;;;6.60;99.90;;;;;;5188065;28;20247;-49
2022/03/27 00:24:17;;;;;;;12.67;9.27;;;6.50;99.90;;;;;;5169459;28;20183;-49
2022/03/27 00:26:47;;;;;;;23.10;13.70;;;6.50;99.90;;;;;;5175107;28;20239;-49
2022/03/27 00:29:18;;;;;;;18.90;12.13;;;6.50;99.90;;;;;;5168997;28;20549;-50
2022/03/27 00:31:49;;;;;;;13.73;9.90;;;6.40;99.90;;;;;;5178781;28;20191;-49
2022/03/27 00:34:21;;;;;;;14.10;9.07;;;6.50;99.90;;;;;;5175638;28;20438;-49
2022/03/27 00:36:51;;;;;;;16.47;9.80;;;6.40;99.90;;;;;;5179604;28;20225;-49
2022/03/27 00:39:22;;;;;;;12.30;9.63;;;6.50;99.90;;;;;;5173622;28;20529;-49
2022/03/27 00:41:53;;;;;;;14.17;9.30;;;6.50;99.90;;;;;;5180668;28;20207;-50
2022/03/27 00:44:23;;;;;;;14.37;9.00;;;6.50;99.90;;;;;;5176738;28;20221;-48
2022/03/27 00:46:54;;;;;;;16.47;10.60;;;6.50;99.90;;;;;;5180897;28;20201;-50
2022/03/27 00:49:24;;;;;;;13.60;9.50;;;6.50;99.90;;;;;;5177923;28;20191;-48
2022/03/27 00:51:55;;;;;;;12.70;9.70;;;6.50;99.90;;;;;;5175289;28;20553;-50
2022/03/27 00:54:25;;;;;;;14.47;10.90;;;6.50;99.90;;;;;;5178814;28;20192;-50
2022/03/27 00:56:56;;;;;;;14.20;10.33;;;6.40;99.90;;;;;;5179959;28;20236;-49
2022/03/27 00:59:26;;;;;;;17.70;11.00;;;6.40;99.90;;;;;;5165263;28;20670;-50
2022/03/27 01:01:59;;;;;;;19.37;10.80;;;6.40;99.90;;;;;;5179994;28;20242;-48
2022/03/27 01:04:30;;;;;;;11.73;9.40;;;6.30;99.90;;;;;;5181233;28;20728;-48
2022/03/27 01:07:00;;;;;;;15.40;9.83;;;6.30;99.90;;;;;;5179500;28;20467;-50
2022/03/27 01:09:36;;;;;;;17.67;10.30;;;6.20;99.90;;;;;;5179987;28;20291;-49
2022/03/27 01:12:24;;;;;;;13.83;9.40;;;6.20;99.90;;;;;;5178490;28;20188;-49
2022/03/27 01:14:54;;;;;;;9.47;8.57;;;6.20;99.90;;;;;;5170708;28;20492;-49
2022/03/27 01:17:26;;;;;;;13.83;9.27;;;6.10;99.90;;;;;;5180607;28;20439;-48
2022/03/27 01:19:57;;;;;;;12.93;10.10;;;6.00;99.90;;;;;;5175159;28;20177;-49
2022/03/27 01:22:28;;;;;;;12.00;9.40;;;6.00;99.90;;;;;;5177918;28;20442;-49
2022/03/27 01:24:58;;;;;;;12.90;9.17;;;6.10;99.90;;;;;;5170433;28;20964;-49
2022/03/27 01:27:30;;;;;;;10.40;9.20;;;6.10;99.90;;;;;;5172354;28;20189;-50
2022/03/27 01:30:00;;;;;;;16.20;10.20;;;6.00;99.90;;;;;;5173389;28;20240;-49
2022/03/27 01:32:31;;;;;;;13.23;10.40;;;6.00;99.90;;;;;;5172774;28;20439;-50
2022/03/27 01:35:01;;;;;;;15.53;11.10;;;6.00;99.90;;;;;;5179337;28;20238;-48
2022/03/27 01:37:32;;;;;;;15.07;10.27;;;6.00;99.90;;;;;;5179352;28;20196;-49
2022/03/27 01:40:05;;;;;;;13.80;10.60;;;6.00;99.90;;;;;;5166085;28;20646;-48
2022/03/27 01:42:35;;;;;;;17.40;10.80;;;6.00;99.90;;;;;;5172931;28;20211;-48
2022/03/27 01:45:07;;;;;;;11.63;9.63;;;6.00;99.90;;;;;;5173213;28;20521;-49
2022/03/27 01:47:38;;;;;;;14.10;10.60;;;6.00;99.90;;;;;;5173202;28;20240;-49
2022/03/27 01:50:09;;;;;;;14.63;11.03;;;6.00;99.90;;;;;;5176654;28;20791;-48
2022/03/27 01:52:39;;;;;;;19.00;11.30;;;6.00;99.90;;;;;;5175178;28;20462;-49
2022/03/27 01:55:13;;;;;;;14.00;10.17;;;6.10;99.90;;;;;;5174200;28;20287;-49
2022/03/27 01:57:44;;;;;;;14.60;10.53;;;6.00;99.90;;;;;;5179534;28;20230;-48
2022/03/27 02:00:15;;;;;;;18.60;11.43;;;6.00;99.90;;;;;;5178034;28;20467;-48
2022/03/27 02:02:46;;;;;;;12.60;10.13;;;5.90;99.90;;;;;;5172152;28;20187;-48
2022/03/27 02:05:16;;;;;;;18.77;11.60;;;5.90;99.90;;;;;;5165985;28;20196;-47
2022/03/27 02:07:47;;;;;;;17.20;10.80;;;5.90;99.90;;;;;;5168106;28;20290;-47
2022/03/27 02:10:18;;;;;;;15.50;11.10;;;5.80;99.90;;;;;;5172932;28;22040;-48
2022/03/27 02:12:48;;;;;;;14.07;11.20;;;5.80;99.90;;;;;;5176296;28;20177;-48
2022/03/27 02:15:19;;;;;;;16.30;11.07;;;5.80;99.90;;;;;;5174851;28;20936;-49
2022/03/27 02:17:49;;;;;;;13.97;11.17;;;5.80;99.90;;;;;;5177329;28;20199;-49
2022/03/27 02:20:20;;;;;;;16.67;11.13;;;5.70;99.90;;;;;;5179109;28;20224;-49
2022/03/27 02:22:51;;;;;;;18.07;12.07;;;5.70;99.90;;;;;;5172223;28;20190;-48
2022/03/27 02:25:22;;;;;;;17.47;12.33;;;5.70;99.90;;;;;;5200937;23;20300;-50
2022/03/27 02:27:53;;;;;;;16.63;12.40;;;5.60;99.90;;;;;;5253709;28;20176;-50
2022/03/27 02:30:23;;;;;;;18.83;14.13;;;5.60;99.90;;;;;;5264405;28;20443;-51
2022/03/27 02:32:54;;;;;;;21.23;13.67;;;5.60;99.90;;;;;;5262920;28;20183;-51
2022/03/27 02:35:24;;;;;;;25.90;13.60;;;5.60;99.90;;;;;;5260586;28;20262;-50
2022/03/27 02:37:55;;;;;;;18.93;13.10;;;5.50;99.90;;;;;;5260816;28;20550;-51
2022/03/27 02:40:26;;;;;;;19.90;12.67;;;5.50;99.90;;;;;;5257833;28;20211;-51
2022/03/27 02:42:59;;;;;;;17.30;13.07;;;5.50;99.90;;;;;;5263368;28;20174;-50
2022/03/27 02:45:30;;;;;;;18.97;14.07;;;5.40;99.90;;;;;;5267078;28;20627;-52
2022/03/27 02:48:00;;;;;;;19.40;13.30;;;5.30;99.90;;;;;;5255137;28;20452;-51
2022/03/27 02:50:31;;;;;;;22.00;14.77;;;5.40;99.90;;;;;;5255795;28;20432;-51
2022/03/27 02:53:02;;;;;;;21.83;16.00;;;5.40;99.90;;;;;;5261076;28;20673;-51
2022/03/27 02:55:32;;;;;;;21.33;14.87;;;5.30;99.90;;;;;;5259787;28;20491;-50
2022/03/27 02:58:03;;;;;;;24.07;18.07;;;5.30;99.90;;;;;;5254268;28;20178;-49
2022/03/27 03:00:34;;;;;;;22.87;17.00;;;5.30;99.90;;;;;;5253025;28;20198;-50
2022/03/27 03:03:05;;;;;;;21.37;16.70;;;5.30;99.90;;;;;;5257099;28;20178;-50
2022/03/27 03:05:40;;;;;;;29.93;17.70;;;5.20;99.90;;;;;;5255011;28;20201;-51
2022/03/27 03:08:11;;;;;;;21.93;15.57;;;5.20;99.90;;;;;;5259091;28;20539;-50
2022/03/27 03:10:42;;;;;;;22.53;15.87;;;5.20;99.90;;;;;;5251245;28;20511;-50
2022/03/27 03:13:12;;;;;;;25.60;16.40;;;5.10;99.90;;;;;;5254143;28;20501;-52
2022/03/27 03:15:44;;;;;;;24.53;17.00;;;5.10;99.90;;;;;;5256729;28;20207;-50
2022/03/27 03:18:14;;;;;;;22.70;14.37;;;5.10;99.90;;;;;;5262030;28;20184;-50
2022/03/27 03:20:45;;;;;;;26.60;18.03;;;5.00;99.90;;;;;;5251130;28;20457;-50
2022/03/27 03:23:17;;;;;;;25.00;17.63;;;5.00;99.90;;;;;;5254203;28;20211;-49
2022/03/27 03:25:47;;;;;;;25.10;16.00;;;5.00;99.90;;;;;;5263332;28;20468;-50
2022/03/27 03:28:18;;;;;;;31.60;18.63;;;5.00;99.90;;;;;;5251912;28;20543;-50
2022/03/27 03:30:48;;;;;;;25.80;17.50;;;5.00;99.90;;;;;;5256298;28;20705;-50
2022/03/27 03:33:20;;;;;;;22.27;16.63;;;5.00;99.90;;;;;;5263150;28;20236;-51
2022/03/27 03:35:50;;;;;;;25.63;16.43;;;5.00;99.90;;;;;;5254025;28;20211;-51
2022/03/27 03:38:21;;;;;;;22.00;16.43;;;5.00;99.90;;;;;;5273154;28;20477;-50
2022/03/27 03:40:52;;;;;;;18.43;14.60;;;5.00;99.90;;;;;;5259472;28;20237;-51
2022/03/27 03:43:22;;;;;;;23.90;17.23;;;4.90;99.90;;;;;;5250193;28;20264;-51
2022/03/27 03:45:53;;;;;;;32.90;20.00;;;4.90;99.90;;;;;;5260688;28;20203;-51
2022/03/27 03:48:23;;;;;;;30.07;19.20;;;4.90;99.90;;;;;;5254017;28;20183;-51
2022/03/27 03:50:54;;;;;;;32.83;21.37;;;4.80;99.90;;;;;;5260990;28;20179;-50
2022/03/27 03:53:26;;;;;;;35.43;20.50;;;4.90;99.90;;;;;;5259212;28;20187;-50
2022/03/27 03:55:57;;;;;;;29.53;20.00;;;4.90;99.90;;;;;;5251640;28;20208;-51
2022/03/27 03:58:27;;;;;;;27.90;18.80;;;4.90;99.90;;;;;;5250784;28;20423;-50
2022/03/27 04:00:58;;;;;;;28.90;18.47;;;4.90;99.90;;;;;;5250473;28;20214;-51
2022/03/27 04:03:30;;;;;;;33.13;18.90;;;4.90;99.90;;;;;;5256078;28;20186;-50
2022/03/27 04:06:00;;;;;;;32.50;17.90;;;4.90;99.90;;;;;;5260331;28;20828;-50
2022/03/27 04:08:31;;;;;;;29.67;19.53;;;4.80;99.90;;;;;;5258716;28;20440;-50
2022/03/27 04:11:01;;;;;;;34.37;18.00;;;4.80;99.90;;;;;;5256184;28;20347;-50
2022/03/27 04:13:32;;;;;;;32.97;19.10;;;4.80;99.90;;;;;;5249708;28;20204;-51
2022/03/27 04:16:03;;;;;;;23.93;17.53;;;4.80;99.90;;;;;;5258989;28;20252;-50
2022/03/27 04:18:35;;;;;;;31.90;20.67;;;4.70;99.90;;;;;;5257256;28;20200;-49
2022/03/27 04:21:05;;;;;;;30.63;19.70;;;4.70;99.90;;;;;;5261115;28;20225;-50
2022/03/27 04:23:36;;;;;;;28.37;19.30;;;4.70;99.90;;;;;;5256089;28;20432;-49
2022/03/27 04:26:07;;;;;;;26.00;18.73;;;4.70;99.90;;;;;;5266556;28;21134;-50
2022/03/27 04:28:37;;;;;;;27.37;18.53;;;4.70;99.90;;;;;;5247076;28;20606;-50
2022/03/27 04:31:08;;;;;;;32.67;20.80;;;4.70;99.90;;;;;;5264976;28;20676;-51
2022/03/27 04:33:38;;;;;;;30.40;19.03;;;4.60;99.90;;;;;;5284509;28;20187;-49
2022/03/27 04:36:09;;;;;;;27.27;18.50;;;4.60;99.90;;;;;;5255715;28;20206;-50
2022/03/27 04:38:39;;;;;;;28.87;19.37;;;4.60;99.90;;;;;;5279224;28;20270;-50
2022/03/27 04:41:10;;;;;;;27.60;20.77;;;4.60;99.90;;;;;;5264682;28;20224;-50
2022/03/27 04:43:40;;;;;;;33.17;20.77;;;4.60;99.90;;;;;;5271607;28;20182;-51
2022/03/27 04:46:11;;;;;;;30.43;18.50;;;4.60;99.90;;;;;;5271763;28;20290;-50
2022/03/27 04:48:42;;;;;;;31.63;19.40;;;4.60;99.90;;;;;;5273658;28;20526;-49
2022/03/27 04:51:13;;;;;;;26.00;19.87;;;4.60;99.90;;;;;;5272655;28;20205;-49
2022/03/27 04:53:44;;;;;;;29.13;19.10;;;4.60;99.90;;;;;;5260351;28;20436;-49
2022/03/27 04:56:15;;;;;;;28.20;18.07;;;4.60;99.90;;;;;;5272010;28;20201;-50
2022/03/27 04:58:45;;;;;;;25.10;17.27;;;4.60;99.90;;;;;;5261678;28;20192;-50
2022/03/27 05:01:16;;;;;;;30.73;17.67;;;4.60;99.90;;;;;;5258317;28;20226;-49
2022/03/27 05:03:46;;;;;;;26.57;18.53;;;4.60;99.90;;;;;;5272799;28;20235;-50
2022/03/27 05:06:17;;;;;;;25.43;17.50;;;4.60;99.90;;;;;;5271790;28;20216;-50
2022/03/27 05:08:47;;;;;;;24.70;17.00;;;4.60;99.90;;;;;;5274775;28;20269;-48
2022/03/27 05:11:18;;;;;;;25.60;18.43;;;4.70;99.90;;;;;;5272655;28;20693;-50
2022/03/27 05:13:48;;;;;;;24.33;17.60;;;4.80;99.90;;;;;;5246987;28;20240;-51
2022/03/27 05:16:19;;;;;;;26.20;19.13;;;4.90;99.90;;;;;;5262607;28;20410;-51
2022/03/27 05:18:49;;;;;;;36.50;17.93;;;4.90;99.90;;;;;;5256882;28;20211;-50
2022/03/27 05:21:21;;;;;;;29.87;17.00;;;5.00;99.90;;;;;;5259735;28;20206;-50
2022/03/27 05:23:51;;;;;;;24.23;17.80;;;5.10;99.90;;;;;;5272365;28;20508;-50
2022/03/27 05:26:22;;;;;;;25.93;17.80;;;5.30;99.90;;;;;;5273075;28;20474;-50
2022/03/27 05:28:54;;;;;;;26.97;17.40;;;5.30;99.90;;;;;;5256296;28;20189;-50
2022/03/27 05:31:24;;;;;;;24.97;16.97;;;5.50;99.90;;;;;;5270450;28;20267;-50
2022/03/27 05:33:55;;;;;;;34.87;18.60;;;5.70;99.90;;;;;;5270261;28;20422;-49
2022/03/27 05:36:26;;;;;;;28.30;18.03;;;5.90;99.90;;;;;;5279525;28;20210;-51
2022/03/27 05:38:57;;;;;;;24.33;17.60;;;6.20;99.90;;;;;;5264829;28;20270;-50
2022/03/27 05:41:27;;;;;;;24.60;16.50;;;6.40;99.90;;;;;;5275471;28;20567;-51
2022/03/27 05:43:58;;;;;;;26.83;17.37;;;6.80;99.90;;;;;;5256937;28;20535;-52
2022/03/27 05:46:28;;;;;;;25.30;16.00;;;7.10;99.90;;;;;;5262473;28;20202;-50
2022/03/27 05:48:59;;;;;;;31.33;17.00;;;7.30;99.90;;;;;;5279833;28;20252;-49
2022/03/27 05:51:29;;;;;;;22.70;15.80;;;7.50;99.90;;;;;;5270685;28;20184;-51
2022/03/27 05:54:00;;;;;;;26.37;16.70;;;7.80;99.90;;;;;;5254442;28;20182;-49
2022/03/27 05:56:30;;;;;;;31.67;17.50;;;8.30;99.90;;;;;;5275365;28;20234;-50
2022/03/27 05:59:01;;;;;;;24.30;16.83;;;8.70;99.90;;;;;;5255328;28;20555;-49
2022/03/27 06:01:31;;;;;;;23.83;16.77;;;9.40;99.90;;;;;;5268953;28;20708;-51
2022/03/27 06:04:02;;;;;;;30.83;16.83;;;10.20;99.90;;;;;;5263993;28;20226;-50
2022/03/27 06:06:32;;;;;;;24.83;15.10;;;10.90;99.90;;;;;;5273620;27;20197;-50
2022/03/27 06:09:03;;;;;;;27.80;16.23;;;11.70;99.90;;;;;;5276357;27;20185;-50
2022/03/27 06:11:34;;;;;;;23.83;15.67;;;12.90;99.90;;;;;;5281910;27;20280;-51
2022/03/27 06:14:04;;;;;;;26.10;16.27;;;14.20;94.40;;;;;;5263652;28;21045;-50
2022/03/27 06:16:36;;;;;;;20.10;14.90;;;15.20;74.90;;;;;;5277234;28;20297;-51
2022/03/27 06:19:07;;;;;;;21.93;13.20;;;15.90;66.40;;;;;;5263809;28;20773;-49
2022/03/27 06:21:37;;;;;;;16.07;12.63;;;16.40;61.80;;;;;;5286457;28;20455;-50
2022/03/27 06:24:08;;;;;;;23.03;14.40;;;16.90;59.30;;;;;;5259785;28;20208;-52
2022/03/27 06:26:40;;;;;;;19.93;14.57;;;17.50;56.00;;;;;;5287901;28;20538;-50
2022/03/27 06:29:10;;;;;;;17.60;12.70;;;18.10;53.90;;;;;;5275788;28;20191;-50
2022/03/27 06:31:41;;;;;;;21.37;13.57;;;18.70;52.40;;;;;;5261484;28;20431;-51
2022/03/27 06:34:12;;;;;;;18.47;13.63;;;19.40;49.70;;;;;;5238055;28;20185;-49
2022/03/27 06:36:43;;;;;;;19.33;13.90;;;20.00;47.20;;;;;;5259001;28;20215;-50
2022/03/27 06:39:15;;;;;;;22.30;14.03;;;20.50;46.30;;;;;;5256128;28;20431;-51
2022/03/27 06:41:45;;;;;;;15.03;12.37;;;20.80;44.40;;;;;;5244211;28;20247;-50
2022/03/27 06:44:16;;;;;;;21.80;13.00;;;21.20;44.90;;;;;;5274209;28;20458;-50
2022/03/27 06:46:47;;;;;;;21.83;14.40;;;21.90;42.20;;;;;;5273604;28;20216;-51
2022/03/27 06:49:18;;;;;;;20.10;12.43;;;22.40;41.60;;;;;;5265983;28;20180;-50
2022/03/27 06:51:48;;;;;;;16.60;12.80;;;23.00;40.50;;;;;;5264872;28;20444;-51
2022/03/27 06:54:20;;;;;;;17.60;15.00;;;23.60;39.10;;;;;;5254298;28;20215;-50
2022/03/27 06:56:50;;;;;;;15.43;12.13;;;23.80;38.00;;;;;;5267117;28;21053;-50
2022/03/27 06:59:21;;;;;;;15.50;12.07;;;23.90;37.90;;;;;;5239969;28;20435;-49
2022/03/27 07:04:40;;;;;;;14.50;12.67;;;24.40;37.20;;;;;;5268059;28;20190;-50
2022/03/27 07:07:11;;;;;;;15.03;12.23;;;24.80;36.00;;;;;;5255224;28;20451;-49
2022/03/27 07:09:41;;;;;;;17.20;12.47;;;24.90;36.30;;;;;;5266878;28;20228;-52
2022/03/27 07:12:12;;;;;;;20.80;13.47;;;24.70;36.40;;;;;;5253289;28;20692;-49
2022/03/27 07:14:42;;;;;;;14.47;11.20;;;24.10;36.70;;;;;;5272296;28;20230;-52
2022/03/27 07:17:17;;;;;;;15.43;11.90;;;24.00;37.70;;;;;;5262720;28;20691;-51
2022/03/27 07:19:48;;;;;;;15.63;11.07;;;24.10;37.60;;;;;;5283099;28;20173;-50
2022/03/27 07:22:18;;;;;;;14.20;11.13;;;23.90;37.20;;;;;;5257307;28;20482;-50
2022/03/27 07:24:50;;;;;;;16.07;11.53;;;23.90;37.70;;;;;;5279062;28;20265;-52
2022/03/27 07:27:20;;;;;;;26.40;11.00;;;23.60;38.30;;;;;;5282127;27;20841;-51
2022/03/27 07:29:51;;;;;;;13.97;9.13;;;23.90;38.30;;;;;;5258963;28;20484;-50
2022/03/27 07:32:21;;;;;;;14.50;10.33;;;24.40;37.60;;;;;;5271137;28;24574;-52
2022/03/27 07:34:52;;;;;;;14.43;9.60;;;24.60;37.40;;;;;;5256069;28;20220;-51
2022/03/27 07:37:22;;;;;;;12.20;9.80;;;24.90;37.40;;;;;;5269304;28;20556;-50
2022/03/27 07:39:53;;;;;;;16.23;9.23;;;24.80;36.50;;;;;;5272819;28;20216;-50
2022/03/27 07:42:23;;;;;;;10.63;8.50;;;24.60;37.10;;;;;;5262494;28;20251;-51
2022/03/27 07:44:54;;;;;;;15.73;8.90;;;24.80;37.30;;;;;;5281027;28;20225;-53
2022/03/27 07:47:24;;;;;;;11.33;9.97;;;24.40;37.60;;;;;;5281905;28;20629;-50
2022/03/27 07:49:55;;;;;;;11.20;9.10;;;24.30;36.70;;;;;;5282395;28;20190;-51
2022/03/27 07:52:27;;;;;;;13.30;9.37;;;24.90;36.50;;;;;;5263525;28;20184;-50
2022/03/27 07:54:58;;;;;;;14.33;9.30;;;25.20;36.30;;;;;;5284261;28;20192;-51
2022/03/27 07:57:28;;;;;;;12.27;10.17;;;25.50;36.50;;;;;;5279450;28;20426;-51
2022/03/27 07:59:59;;;;;;;8.30;7.50;;;25.70;35.60;;;;;;5251653;28;20281;-50
2022/03/27 08:02:29;;;;;;;11.67;8.23;;;25.90;35.80;;;;;;5283883;28;20180;-49
2022/03/27 08:05:00;;;;;;;10.07;7.30;;;25.80;35.10;;;;;;5270234;28;20190;-50
2022/03/27 08:07:31;;;;;;;11.53;9.23;;;25.70;35.50;;;;;;5257323;28;20661;-50
2022/03/27 08:10:03;;;;;;;10.70;8.80;;;25.30;35.90;;;;;;5275082;28;20173;-50
2022/03/27 08:12:35;;;;;;;12.30;9.90;;;24.70;36.80;;;;;;5241207;28;20192;-51
2022/03/27 08:15:06;;;;;;;10.33;8.77;;;23.70;37.80;;;;;;5262275;28;20435;-50
2022/03/27 08:17:37;;;;;;;9.43;8.03;;;22.80;39.60;;;;;;5260041;28;20497;-51
2022/03/27 08:20:08;;;;;;;10.03;9.03;;;21.80;41.50;;;;;;5282517;28;20424;-51
2022/03/27 08:22:39;;;;;;;9.83;7.57;;;20.60;42.90;;;;;;5277797;28;20170;-51
2022/03/27 08:25:12;;;;;;;8.97;8.10;;;19.50;44.70;;;;;;5257328;28;20961;-50
2022/03/27 08:27:42;;;;;;;10.60;7.83;;;18.40;46.50;;;;;;5269003;28;20283;-51
2022/03/27 08:30:13;;;;;;;10.17;8.03;;;17.90;48.30;;;;;;5274991;28;20467;-49
2022/03/27 08:32:43;;;;;;;10.33;8.43;;;17.50;49.10;;;;;;5271449;28;20180;-49
2022/03/27 08:35:14;;;;;;;10.50;9.03;;;17.00;50.00;;;;;;5258290;28;20296;-49
2022/03/27 08:37:44;;;;;;;17.17;9.17;;;16.30;51.10;;;;;;5277482;28;20177;-49
2022/03/27 08:40:17;;;;;;;18.40;9.30;;;15.80;53.10;;;;;;5275823;28;20247;-51
2022/03/27 08:42:48;;;;;;;12.03;9.27;;;15.50;54.30;;;;;;5274590;28;20170;-49
2022/03/27 08:45:19;;;;;;;13.60;9.80;;;15.00;55.70;;;;;;5277626;28;20458;-52
2022/03/27 08:47:49;;;;;;;13.60;9.40;;;14.20;61.60;;;;;;5255956;28;20467;-50
2022/03/27 08:50:29;;;;;;;12.57;8.97;;;14.00;72.50;;;;;;5261122;28;20545;-51
2022/03/27 08:53:07;;;;;;;16.07;9.33;;;13.90;81.70;;;;;;5272906;28;20370;-49
2022/03/27 08:56:08;;;;;;;10.83;8.20;;;13.80;87.30;;;;;;5241166;28;20452;-49
2022/03/27 08:58:40;;;;;;;9.10;8.03;;;13.90;90.30;;;;;;5270259;28;20857;-50
2022/03/27 09:01:11;;;;;;;10.73;9.47;;;13.90;90.40;;;;;;5279827;28;20823;-49
2022/03/27 09:03:42;;;;;;;14.20;8.90;;;13.70;91.10;;;;;;5254554;28;20468;-47
2022/03/27 09:06:12;;;;;;;13.20;10.50;;;13.70;92.50;;;;;;5253858;28;20288;-51
2022/03/27 09:08:43;;;;;;;11.70;9.30;;;13.70;92.60;;;;;;5279334;28;20183;-49
2022/03/27 09:11:18;;;;;;;12.87;9.50;;;13.60;93.90;;;;;;5259109;28;20532;-51
2022/03/27 09:13:52;;;;;;;14.80;9.40;;;13.40;95.90;;;;;;5273276;28;20181;-52
2022/03/27 09:16:22;;;;;;;12.37;10.67;;;13.50;97.20;;;;;;5276538;28;20458;-51
2022/03/27 09:18:58;;;;;;;13.30;9.77;;;13.60;96.30;;;;;;5264228;28;20439;-52
2022/03/27 09:21:28;;;;;;;12.17;10.40;;;13.60;95.70;;;;;;5276241;28;20653;-50
2022/03/27 09:24:00;;;;;;;12.13;9.80;;;13.70;95.60;;;;;;5285943;27;20416;-50
2022/03/27 09:26:32;;;;;;;11.37;8.77;;;13.80;95.00;;;;;;5285396;28;20277;-50
2022/03/27 09:29:08;;;;;;;10.17;9.10;;;14.00;94.20;;;;;;5276611;28;20441;-51
2022/03/27 09:31:39;;;;;;;34.03;11.67;;;14.10;92.90;;;;;;5264454;28;20443;-51
2022/03/27 09:34:09;;;;;;;12.80;10.87;;;14.20;90.50;;;;;;5279426;28;20435;-50
2022/03/27 09:36:43;;;;;;;14.37;11.00;;;14.20;90.20;;;;;;5273068;28;20214;-52
2022/03/27 09:39:20;;;;;;;12.40;11.17;;;14.20;88.80;;;;;;5289111;28;20181;-49
2022/03/27 09:41:53;;;;;;;13.50;10.37;;;14.20;89.40;;;;;;5285891;28;20533;-50
2022/03/27 09:44:33;;;;;;;12.90;9.77;;;14.40;90.30;;;;;;5285170;28;20411;-51
2022/03/27 09:47:05;;;;;;;9.53;8.63;;;14.80;85.30;;;;;;5260751;28;20462;-53
2022/03/27 09:49:37;;;;;;;11.30;9.03;;;14.90;78.50;;;;;;5259242;28;20439;-49
2022/03/27 09:52:10;;;;;;;8.90;6.90;;;14.80;74.40;;;;;;5257074;28;20439;-51
2022/03/27 09:54:54;;;;;;;10.10;6.70;;;14.90;73.60;;;;;;5271954;28;20431;-51
2022/03/27 09:57:27;;;;;;;12.97;7.17;;;14.70;70.40;;;;;;5275748;28;20495;-50
2022/03/27 10:00:11;;;;;;;8.40;7.37;;;14.50;71.50;;;;;;5290409;28;20428;-49
2022/03/27 10:02:43;;;;;;;9.20;7.80;;;14.40;74.60;;;;;;5272737;28;20408;-49
2022/03/27 10:05:16;;;;;;;9.33;7.07;;;14.20;77.40;;;;;;5242841;28;20452;-51
2022/03/27 10:07:48;;;;;;;13.00;7.30;;;14.00;76.40;;;;;;5282047;28;20528;-52
2022/03/27 10:10:20;;;;;;;10.17;7.57;;;13.60;78.20;;;;;;5266471;28;20430;-51
2022/03/27 10:12:53;;;;;;;9.40;6.83;;;13.30;82.70;;;;;;5264980;28;20496;-51
2022/03/27 10:15:26;;;;;;;11.90;7.57;;;13.60;83.80;;;;;;5254327;28;20814;-51
2022/03/27 10:18:09;;;;;;;11.60;8.20;;;13.90;81.70;;;;;;5257112;28;20891;-51
2022/03/27 10:20:43;;;;;;;10.30;6.63;;;14.20;80.40;;;;;;5277832;28;20447;-53
2022/03/27 10:23:21;;;;;;;12.57;6.33;;;14.50;76.30;;;;;;5284732;28;20428;-52
2022/03/27 10:25:59;;;;;;;7.00;6.30;;;14.80;72.00;;;;;;5272516;28;20459;-51
2022/03/27 10:28:31;;;;;;;8.20;6.87;;;14.90;67.50;;;;;;5267981;28;20433;-51
2022/03/27 10:31:02;;;;;;;7.77;5.80;;;15.00;65.70;;;;;;5284090;28;20545;-50
2022/03/27 10:33:33;;;;;;;7.60;5.70;;;14.90;65.10;;;;;;5278034;28;20450;-52
2022/03/27 10:36:12;;;;;;;8.20;6.27;;;15.00;64.40;;;;;;5248388;28;20387;-51
2022/03/27 10:39:04;;;;;;;11.53;7.33;;;15.00;62.30;;;;;;5270196;28;20416;-50
2022/03/27 10:41:50;;;;;;;6.87;5.80;;;14.90;62.30;;;;;;5268804;28;20489;-50
2022/03/27 10:44:37;;;;;;;5.90;5.30;;;14.90;62.40;;;;;;5268531;28;20486;-50
2022/03/27 10:47:14;;;;;;;6.07;5.13;;;14.90;60.50;;;;;;5265885;28;20561;-51
2022/03/27 10:50:05;;;;;;;7.40;5.60;;;15.00;61.20;;;;;;5270222;28;20790;-52
2022/03/27 10:53:01;;;;;;;7.03;4.63;;;15.20;58.60;;;;;;5254589;28;20439;-50
2022/03/27 10:55:44;;;;;;;7.20;5.77;;;15.10;58.90;;;;;;5251738;28;20464;-51
2022/03/27 10:58:29;;;;;;;9.90;7.47;;;14.90;59.20;;;;;;5268453;28;20943;-50
2022/03/27 11:01:05;;;;;;;6.80;6.20;;;14.80;60.00;;;;;;5261819;28;20784;-51
2022/03/27 11:04:04;;;;;;;8.00;6.40;;;14.80;60.10;;;;;;5265511;28;20931;-50
2022/03/27 11:06:43;;;;;;;9.67;6.30;;;14.90;59.80;;;;;;5254086;28;20456;-51
2022/03/27 11:09:31;;;;;;;5.63;5.13;;;15.10;59.90;;;;;;5267532;28;20433;-50
2022/03/27 11:12:04;;;;;;;10.93;7.57;;;15.30;58.70;;;;;;5257675;28;20431;-52
2022/03/27 11:14:53;;;;;;;7.17;5.50;;;15.50;58.20;;;;;;5286604;28;20456;-51
2022/03/27 11:17:31;;;;;;;21.17;13.93;;;15.40;57.60;;;;;;5267032;28;20439;-50
2022/03/27 11:20:08;;;;;;;7.90;6.73;;;15.50;56.60;;;;;;5276558;28;20764;-49
2022/03/27 11:22:53;;;;;;;11.03;6.23;;;15.50;54.80;;;;;;5265674;28;20818;-51
2022/03/27 11:25:24;;;;;;;10.87;7.33;;;15.60;55.50;;;;;;5245331;28;20463;-52
2022/03/27 11:28:07;;;;;;;5.83;5.10;;;15.80;55.50;;;;;;5265650;28;20465;-51
2022/03/27 11:30:59;;;;;;;8.97;5.23;;;15.90;53.60;;;;;;5255781;28;20432;-51
2022/03/27 11:33:30;;;;;;;14.73;6.53;;;16.00;53.10;;;;;;5256205;28;20514;-51
2022/03/27 11:36:01;;;;;;;5.83;5.33;;;15.90;52.50;;;;;;5265277;28;20447;-51
2022/03/27 11:38:51;;;;;;;14.23;8.10;;;15.90;52.30;;;;;;5257800;28;20454;-52
2022/03/27 11:41:25;;;;;;;16.40;9.90;;;16.00;51.90;;;;;;5258262;28;20317;-51
2022/03/27 11:44:16;;;;;;;6.80;5.60;;;15.80;52.10;;;;;;5280781;28;20840;-51
2022/03/27 11:46:49;;;;;;;12.20;6.00;;;15.90;51.60;;;;;;5252333;28;20983;-49
2022/03/27 11:49:22;;;;;;;6.17;4.03;;;16.00;52.50;;;;;;5275223;28;20492;-52
2022/03/27 11:52:22;;;;;;;6.70;4.93;;;16.20;52.40;;;;;;5280749;28;20456;-50
2022/03/27 11:55:03;;;;;;;5.07;4.67;;;16.30;51.20;;;;;;5261122;28;20474;-51
2022/03/27 11:57:57;;;;;;;5.00;4.60;;;16.30;51.30;;;;;;5264870;28;20427;-49
2022/03/27 12:00:29;;;;;;;4.50;4.03;;;16.00;50.40;;;;;;5272746;28;20434;-51
2022/03/27 12:03:02;;;;;;;6.63;5.10;;;15.80;51.10;;;;;;5267216;28;20451;-51
2022/03/27 12:05:37;;;;;;;6.90;5.13;;;15.90;51.60;;;;;;5273473;28;20461;-52
2022/03/27 12:08:11;;;;;;;5.07;4.57;;;16.00;51.40;;;;;;5272386;28;20776;-50
2022/03/27 12:10:54;;;;;;;4.30;4.00;;;16.20;51.60;;;;;;5260450;28;20521;-53
2022/03/27 12:13:25;;;;;;;4.13;3.83;;;16.40;50.80;;;;;;5282307;28;20445;-51
2022/03/27 12:15:55;;;;;;;3.50;3.20;;;16.60;49.80;;;;;;5261663;28;20455;-51
2022/03/27 12:18:34;;;;;;;3.43;3.20;;;16.70;49.20;;;;;;5272697;28;20188;-51
2022/03/27 12:21:09;;;;;;;5.27;4.83;;;16.60;47.10;;;;;;5271470;28;20568;-51
2022/03/27 12:23:55;;;;;;;3.57;3.37;;;16.40;47.30;;;;;;5275192;28;20833;-51
2022/03/27 12:32:13;;;;;;;8.23;4.40;;;16.10;48.90;;;;;;5290718;28;20473;-51
2022/03/27 12:34:47;;;;;;;4.70;3.80;;;16.00;49.30;;;;;;5291012;28;20426;-50
2022/03/27 12:37:19;;;;;;;4.20;3.90;;;16.10;49.20;;;;;;5277434;28;20439;-50
2022/03/27 12:39:49;;;;;;;12.13;4.20;;;16.10;48.70;;;;;;5254230;28;20423;-53
2022/03/27 12:42:35;;;;;;;8.07;5.23;;;16.00;49.10;;;;;;5298934;27;20466;-51
2022/03/27 12:45:07;;;;;;;6.63;5.63;;;15.90;48.80;;;;;;5267494;28;20236;-51
2022/03/27 12:47:58;;;;;;;12.40;4.13;;;16.00;49.20;;;;;;5272085;28;20504;-52
2022/03/27 12:50:32;;;;;;;10.10;6.37;;;16.20;48.80;;;;;;5258598;28;20438;-51
2022/03/27 12:53:29;;;;;;;9.30;6.27;;;16.30;48.10;;;;;;5256698;28;20418;-51
2022/03/27 12:56:00;;;;;;;6.53;5.30;;;16.40;47.20;;;;;;5243116;28;20448;-50
2022/03/27 12:58:35;;;;;;;4.30;3.90;;;16.50;46.70;;;;;;5256371;28;20481;-51
2022/03/27 13:01:11;;;;;;;8.60;3.80;;;16.40;46.80;;;;;;5279526;28;20208;-52
2022/03/27 13:04:00;;;;;;;5.97;4.37;;;16.40;46.40;;;;;;5275001;28;20423;-49
2022/03/27 13:06:43;;;;;;;12.83;4.10;;;16.50;46.80;;;;;;5270879;28;20441;-51
2022/03/27 13:09:22;;;;;;;3.90;3.53;;;16.50;46.90;;;;;;5275545;28;20531;-51
2022/03/27 13:11:52;;;;;;;34.33;16.90;;;16.50;46.00;;;;;;5273160;28;20435;-51
2022/03/27 13:14:23;;;;;;;8.90;7.50;;;16.40;45.40;;;;;;5269980;28;20431;-51
2022/03/27 13:16:58;;;;;;;25.97;13.07;;;16.30;45.60;;;;;;5270086;28;20685;-50